sensor_id;sensor_type;location;lat;lon;timestamp;P1;durP1;ratioP1;P2;durP2;ratioP2
74849;SDS011;63397;47.480;19.238;2023-03-14T00:02:44;5.13;;;2.00;;
74849;SDS011;63397;47.480;19.238;2023-03-14T00:05:46;4.40;;;1.95;;
74849;SDS011;63397;47.480;19.238;2023-03-14T00:08:48;3.35;;;1.60;;
74849;SDS011;63397;47.480;19.238;2023-03-14T00:11:51;7.40;;;2.15;;
74849;SDS011;63397;47.480;19.238;2023-03-14T00:14:53;4.33;;;1.90;;
74849;SDS011;63397;47.480;19.238;2023-03-14T00:17:55;5.28;;;2.00;;
74849;SDS011;63397;47.480;19.238;2023-03-14T00:21:00;5.70;;;2.20;;
74849;SDS011;63397;47.480;19.238;2023-03-14T00:24:03;6.07;;;1.90;;
74849;SDS011;63397;47.480;19.238;2023-03-14T00:27:05;2.95;;;1.38;;
74849;SDS011;63397;47.480;19.238;2023-03-14T00:30:08;6.83;;;2.43;;
74849;SDS011;63397;47.480;19.238;2023-03-14T00:33:10;6.18;;;2.15;;
74849;SDS011;63397;47.480;19.238;2023-03-14T00:36:16;6.55;;;2.22;;
74849;SDS011;63397;47.480;19.238;2023-03-14T00:39:19;5.18;;;2.05;;
74849;SDS011;63397;47.480;19.238;2023-03-14T00:42:21;5.45;;;1.95;;
74849;SDS011;63397;47.480;19.238;2023-03-14T00:45:25;7.90;;;2.97;;
74849;SDS011;63397;47.480;19.238;2023-03-14T00:48:27;7.20;;;2.67;;
74849;SDS011;63397;47.480;19.238;2023-03-14T00:51:29;6.93;;;2.28;;
74849;SDS011;63397;47.480;19.238;2023-03-14T00:54:32;2.90;;;1.40;;
74849;SDS011;63397;47.480;19.238;2023-03-14T00:57:34;5.60;;;1.67;;
74849;SDS011;63397;47.480;19.238;2023-03-14T01:00:36;5.33;;;2.00;;
74849;SDS011;63397;47.480;19.238;2023-03-14T01:03:38;5.03;;;2.35;;
74849;SDS011;63397;47.480;19.238;2023-03-14T01:06:41;4.25;;;1.40;;
74849;SDS011;63397;47.480;19.238;2023-03-14T01:09:45;6.97;;;1.65;;
74849;SDS011;63397;47.480;19.238;2023-03-14T01:12:47;4.40;;;1.58;;
74849;SDS011;63397;47.480;19.238;2023-03-14T01:15:50;6.13;;;2.83;;
74849;SDS011;63397;47.480;19.238;2023-03-14T01:18:52;7.72;;;2.55;;
74849;SDS011;63397;47.480;19.238;2023-03-14T01:21:55;6.07;;;2.50;;
74849;SDS011;63397;47.480;19.238;2023-03-14T01:24:57;4.40;;;1.77;;
74849;SDS011;63397;47.480;19.238;2023-03-14T01:28:00;4.10;;;1.88;;
74849;SDS011;63397;47.480;19.238;2023-03-14T01:31:04;7.83;;;2.23;;
74849;SDS011;63397;47.480;19.238;2023-03-14T01:34:06;6.90;;;2.30;;
74849;SDS011;63397;47.480;19.238;2023-03-14T01:37:08;7.68;;;2.70;;
74849;SDS011;63397;47.480;19.238;2023-03-14T01:40:12;5.55;;;2.53;;
74849;SDS011;63397;47.480;19.238;2023-03-14T01:43:19;2.70;;;1.20;;
74849;SDS011;63397;47.480;19.238;2023-03-14T01:49:31;6.47;;;1.85;;
74849;SDS011;63397;47.480;19.238;2023-03-14T01:52:46;5.80;;;2.17;;
74849;SDS011;63397;47.480;19.238;2023-03-14T01:55:50;5.18;;;2.38;;
74849;SDS011;63397;47.480;19.238;2023-03-14T01:58:54;7.05;;;2.47;;
74849;SDS011;63397;47.480;19.238;2023-03-14T02:01:57;5.90;;;1.93;;
74849;SDS011;63397;47.480;19.238;2023-03-14T02:05:00;6.65;;;2.50;;
74849;SDS011;63397;47.480;19.238;2023-03-14T02:08:08;9.07;;;2.95;;
74849;SDS011;63397;47.480;19.238;2023-03-14T02:11:19;7.13;;;2.58;;
74849;SDS011;63397;47.480;19.238;2023-03-14T02:14:33;6.20;;;2.17;;
74849;SDS011;63397;47.480;19.238;2023-03-14T02:17:53;6.63;;;2.60;;
74849;SDS011;63397;47.480;19.238;2023-03-14T02:27:16;5.80;;;2.40;;
74849;SDS011;63397;47.480;19.238;2023-03-14T02:30:22;3.63;;;1.27;;
74849;SDS011;63397;47.480;19.238;2023-03-14T02:33:25;8.00;;;2.57;;
74849;SDS011;63397;47.480;19.238;2023-03-14T02:36:27;5.05;;;2.20;;
74849;SDS011;63397;47.480;19.238;2023-03-14T02:39:35;4.28;;;1.42;;
74849;SDS011;63397;47.480;19.238;2023-03-14T02:42:38;5.10;;;2.47;;
74849;SDS011;63397;47.480;19.238;2023-03-14T02:45:44;5.38;;;1.95;;
74849;SDS011;63397;47.480;19.238;2023-03-14T02:51:53;2.53;;;1.23;;
74849;SDS011;63397;47.480;19.238;2023-03-14T02:54:55;5.82;;;1.92;;
74849;SDS011;63397;47.480;19.238;2023-03-14T02:57:58;4.68;;;1.73;;
74849;SDS011;63397;47.480;19.238;2023-03-14T03:01:00;4.88;;;2.05;;
74849;SDS011;63397;47.480;19.238;2023-03-14T03:04:03;3.87;;;1.70;;
74849;SDS011;63397;47.480;19.238;2023-03-14T03:07:05;5.32;;;2.13;;
74849;SDS011;63397;47.480;19.238;2023-03-14T03:10:08;7.55;;;1.60;;
74849;SDS011;63397;47.480;19.238;2023-03-14T03:13:11;4.88;;;1.77;;
74849;SDS011;63397;47.480;19.238;2023-03-14T03:16:14;3.05;;;1.63;;
74849;SDS011;63397;47.480;19.238;2023-03-14T03:19:17;3.47;;;1.73;;
74849;SDS011;63397;47.480;19.238;2023-03-14T03:22:19;3.45;;;1.30;;
74849;SDS011;63397;47.480;19.238;2023-03-14T03:25:22;4.53;;;1.65;;
74849;SDS011;63397;47.480;19.238;2023-03-14T03:28:24;4.22;;;1.75;;
74849;SDS011;63397;47.480;19.238;2023-03-14T03:31:27;4.57;;;2.05;;
74849;SDS011;63397;47.480;19.238;2023-03-14T03:34:30;4.00;;;2.03;;
74849;SDS011;63397;47.480;19.238;2023-03-14T03:37:32;4.43;;;1.63;;
74849;SDS011;63397;47.480;19.238;2023-03-14T03:40:35;5.15;;;2.30;;
74849;SDS011;63397;47.480;19.238;2023-03-14T03:43:37;9.15;;;1.85;;
74849;SDS011;63397;47.480;19.238;2023-03-14T03:46:43;4.22;;;2.33;;
74849;SDS011;63397;47.480;19.238;2023-03-14T03:49:45;4.33;;;1.80;;
74849;SDS011;63397;47.480;19.238;2023-03-14T03:52:47;4.22;;;1.75;;
74849;SDS011;63397;47.480;19.238;2023-03-14T03:55:49;4.65;;;1.48;;
74849;SDS011;63397;47.480;19.238;2023-03-14T03:58:51;3.95;;;1.52;;
74849;SDS011;63397;47.480;19.238;2023-03-14T04:01:53;3.33;;;1.33;;
74849;SDS011;63397;47.480;19.238;2023-03-14T04:04:56;4.10;;;1.37;;
74849;SDS011;63397;47.480;19.238;2023-03-14T04:07:58;3.67;;;1.90;;
74849;SDS011;63397;47.480;19.238;2023-03-14T04:11:03;6.10;;;2.20;;
74849;SDS011;63397;47.480;19.238;2023-03-14T04:14:25;4.65;;;1.55;;
74849;SDS011;63397;47.480;19.238;2023-03-14T04:17:50;5.88;;;1.85;;
74849;SDS011;63397;47.480;19.238;2023-03-14T04:20:56;3.83;;;1.73;;
74849;SDS011;63397;47.480;19.238;2023-03-14T04:24:06;6.88;;;2.13;;
74849;SDS011;63397;47.480;19.238;2023-03-14T04:27:10;5.22;;;2.20;;
74849;SDS011;63397;47.480;19.238;2023-03-14T04:30:12;8.45;;;2.47;;
74849;SDS011;63397;47.480;19.238;2023-03-14T04:33:40;4.72;;;1.80;;
74849;SDS011;63397;47.480;19.238;2023-03-14T04:36:46;4.33;;;1.60;;
74849;SDS011;63397;47.480;19.238;2023-03-14T04:39:53;5.13;;;2.25;;
74849;SDS011;63397;47.480;19.238;2023-03-14T04:43:01;7.05;;;2.13;;
74849;SDS011;63397;47.480;19.238;2023-03-14T04:46:04;4.28;;;1.98;;
74849;SDS011;63397;47.480;19.238;2023-03-14T04:49:06;7.30;;;1.98;;
74849;SDS011;63397;47.480;19.238;2023-03-14T04:52:09;6.27;;;2.50;;
74849;SDS011;63397;47.480;19.238;2023-03-14T04:55:12;6.25;;;2.00;;
74849;SDS011;63397;47.480;19.238;2023-03-14T04:58:14;5.25;;;1.90;;
74849;SDS011;63397;47.480;19.238;2023-03-14T05:01:17;7.70;;;1.90;;
74849;SDS011;63397;47.480;19.238;2023-03-14T05:04:20;4.00;;;2.03;;
74849;SDS011;63397;47.480;19.238;2023-03-14T05:07:38;7.53;;;2.17;;
74849;SDS011;63397;47.480;19.238;2023-03-14T05:11:11;5.72;;;2.30;;
74849;SDS011;63397;47.480;19.238;2023-03-14T05:14:43;7.32;;;3.10;;
74849;SDS011;63397;47.480;19.238;2023-03-14T05:17:48;4.25;;;1.88;;
74849;SDS011;63397;47.480;19.238;2023-03-14T05:21:09;8.77;;;1.27;;
74849;SDS011;63397;47.480;19.238;2023-03-14T05:24:40;5.13;;;2.33;;
74849;SDS011;63397;47.480;19.238;2023-03-14T05:28:12;5.18;;;1.83;;
74849;SDS011;63397;47.480;19.238;2023-03-14T05:31:34;4.53;;;2.10;;
74849;SDS011;63397;47.480;19.238;2023-03-14T05:34:57;6.82;;;2.05;;
74849;SDS011;63397;47.480;19.238;2023-03-14T05:38:12;3.55;;;1.38;;
74849;SDS011;63397;47.480;19.238;2023-03-14T05:41:22;4.57;;;1.80;;
74849;SDS011;63397;47.480;19.238;2023-03-14T05:44:39;3.35;;;1.48;;
74849;SDS011;63397;47.480;19.238;2023-03-14T05:48:02;4.00;;;1.60;;
74849;SDS011;63397;47.480;19.238;2023-03-14T05:51:15;5.22;;;1.70;;
74849;SDS011;63397;47.480;19.238;2023-03-14T05:54:29;5.40;;;2.15;;
74849;SDS011;63397;47.480;19.238;2023-03-14T05:57:52;3.50;;;1.50;;
74849;SDS011;63397;47.480;19.238;2023-03-14T06:01:09;6.40;;;2.03;;
74849;SDS011;63397;47.480;19.238;2023-03-14T06:04:32;7.63;;;2.58;;
74849;SDS011;63397;47.480;19.238;2023-03-14T06:07:34;4.97;;;1.77;;
74849;SDS011;63397;47.480;19.238;2023-03-14T06:10:38;5.85;;;2.05;;
74849;SDS011;63397;47.480;19.238;2023-03-14T06:13:41;6.03;;;2.33;;
74849;SDS011;63397;47.480;19.238;2023-03-14T06:16:43;4.75;;;1.65;;
74849;SDS011;63397;47.480;19.238;2023-03-14T06:19:46;4.50;;;1.95;;
74849;SDS011;63397;47.480;19.238;2023-03-14T06:22:48;5.25;;;1.85;;
74849;SDS011;63397;47.480;19.238;2023-03-14T06:25:51;5.43;;;2.13;;
74849;SDS011;63397;47.480;19.238;2023-03-14T06:28:56;4.33;;;1.67;;
74849;SDS011;63397;47.480;19.238;2023-03-14T06:31:59;3.13;;;1.58;;
74849;SDS011;63397;47.480;19.238;2023-03-14T06:35:01;5.72;;;2.00;;
74849;SDS011;63397;47.480;19.238;2023-03-14T06:38:09;4.47;;;1.52;;
74849;SDS011;63397;47.480;19.238;2023-03-14T06:41:12;8.30;;;2.63;;
74849;SDS011;63397;47.480;19.238;2023-03-14T06:44:18;4.83;;;2.23;;
74849;SDS011;63397;47.480;19.238;2023-03-14T06:47:20;5.05;;;2.25;;
74849;SDS011;63397;47.480;19.238;2023-03-14T06:50:24;5.28;;;1.95;;
74849;SDS011;63397;47.480;19.238;2023-03-14T06:53:28;6.10;;;2.58;;
74849;SDS011;63397;47.480;19.238;2023-03-14T06:56:35;3.90;;;1.58;;
74849;SDS011;63397;47.480;19.238;2023-03-14T06:59:37;5.30;;;2.43;;
74849;SDS011;63397;47.480;19.238;2023-03-14T07:02:40;5.28;;;1.90;;
74849;SDS011;63397;47.480;19.238;2023-03-14T07:05:57;5.55;;;2.08;;
74849;SDS011;63397;47.480;19.238;2023-03-14T07:09:02;5.05;;;2.20;;
74849;SDS011;63397;47.480;19.238;2023-03-14T07:12:12;5.22;;;2.65;;
74849;SDS011;63397;47.480;19.238;2023-03-14T07:15:17;5.63;;;2.20;;
74849;SDS011;63397;47.480;19.238;2023-03-14T07:18:26;5.13;;;1.80;;
74849;SDS011;63397;47.480;19.238;2023-03-14T07:21:30;6.13;;;2.70;;
74849;SDS011;63397;47.480;19.238;2023-03-14T07:24:34;8.05;;;2.47;;
74849;SDS011;63397;47.480;19.238;2023-03-14T07:27:38;7.95;;;2.35;;
74849;SDS011;63397;47.480;19.238;2023-03-14T07:30:42;4.77;;;2.20;;
74849;SDS011;63397;47.480;19.238;2023-03-14T07:33:52;5.95;;;2.30;;
74849;SDS011;63397;47.480;19.238;2023-03-14T07:36:58;7.85;;;2.58;;
74849;SDS011;63397;47.480;19.238;2023-03-14T07:40:01;6.60;;;2.33;;
74849;SDS011;63397;47.480;19.238;2023-03-14T07:43:05;6.95;;;2.28;;
74849;SDS011;63397;47.480;19.238;2023-03-14T07:46:26;5.20;;;2.40;;
74849;SDS011;63397;47.480;19.238;2023-03-14T07:49:28;6.35;;;2.50;;
74849;SDS011;63397;47.480;19.238;2023-03-14T07:52:31;5.78;;;2.13;;
74849;SDS011;63397;47.480;19.238;2023-03-14T07:55:33;5.68;;;2.30;;
74849;SDS011;63397;47.480;19.238;2023-03-14T07:58:38;7.45;;;2.33;;
74849;SDS011;63397;47.480;19.238;2023-03-14T08:01:41;6.37;;;2.07;;
74849;SDS011;63397;47.480;19.238;2023-03-14T08:04:44;6.63;;;2.40;;
74849;SDS011;63397;47.480;19.238;2023-03-14T08:07:46;5.95;;;2.47;;
74849;SDS011;63397;47.480;19.238;2023-03-14T08:10:49;6.35;;;2.47;;
74849;SDS011;63397;47.480;19.238;2023-03-14T08:13:53;6.82;;;2.60;;
74849;SDS011;63397;47.480;19.238;2023-03-14T08:16:57;6.03;;;2.10;;
74849;SDS011;63397;47.480;19.238;2023-03-14T08:20:00;5.78;;;2.42;;
74849;SDS011;63397;47.480;19.238;2023-03-14T08:23:02;6.10;;;1.98;;
74849;SDS011;63397;47.480;19.238;2023-03-14T08:26:06;5.53;;;2.47;;
74849;SDS011;63397;47.480;19.238;2023-03-14T08:29:08;6.30;;;2.00;;
74849;SDS011;63397;47.480;19.238;2023-03-14T08:32:11;6.43;;;2.23;;
74849;SDS011;63397;47.480;19.238;2023-03-14T08:35:13;5.82;;;2.25;;
74849;SDS011;63397;47.480;19.238;2023-03-14T08:38:15;8.63;;;2.30;;
74849;SDS011;63397;47.480;19.238;2023-03-14T08:41:18;5.57;;;2.25;;
74849;SDS011;63397;47.480;19.238;2023-03-14T08:44:20;6.80;;;3.00;;
74849;SDS011;63397;47.480;19.238;2023-03-14T08:47:23;4.73;;;1.90;;
74849;SDS011;63397;47.480;19.238;2023-03-14T08:50:28;5.25;;;1.92;;
74849;SDS011;63397;47.480;19.238;2023-03-14T08:53:32;5.38;;;2.10;;
74849;SDS011;63397;47.480;19.238;2023-03-14T08:56:38;5.70;;;1.80;;
74849;SDS011;63397;47.480;19.238;2023-03-14T08:59:43;5.43;;;1.60;;
74849;SDS011;63397;47.480;19.238;2023-03-14T09:02:46;5.27;;;1.63;;
74849;SDS011;63397;47.480;19.238;2023-03-14T09:05:48;4.72;;;1.90;;
74849;SDS011;63397;47.480;19.238;2023-03-14T09:08:52;5.63;;;1.70;;
74849;SDS011;63397;47.480;19.238;2023-03-14T09:11:54;5.97;;;1.50;;
74849;SDS011;63397;47.480;19.238;2023-03-14T09:14:57;3.60;;;1.38;;
74849;SDS011;63397;47.480;19.238;2023-03-14T09:18:04;6.30;;;2.00;;
74849;SDS011;63397;47.480;19.238;2023-03-14T09:21:12;4.57;;;1.52;;
74849;SDS011;63397;47.480;19.238;2023-03-14T09:24:16;5.13;;;1.77;;
74849;SDS011;63397;47.480;19.238;2023-03-14T09:27:19;3.70;;;1.38;;
74849;SDS011;63397;47.480;19.238;2023-03-14T09:30:21;4.28;;;1.45;;
74849;SDS011;63397;47.480;19.238;2023-03-14T09:33:23;5.33;;;1.77;;
74849;SDS011;63397;47.480;19.238;2023-03-14T09:36:26;4.55;;;1.88;;
74849;SDS011;63397;47.480;19.238;2023-03-14T09:39:28;6.05;;;2.15;;
74849;SDS011;63397;47.480;19.238;2023-03-14T09:42:30;5.07;;;2.10;;
74849;SDS011;63397;47.480;19.238;2023-03-14T09:45:36;5.95;;;2.20;;
74849;SDS011;63397;47.480;19.238;2023-03-14T09:48:40;4.97;;;2.10;;
74849;SDS011;63397;47.480;19.238;2023-03-14T09:51:43;6.68;;;2.80;;
74849;SDS011;63397;47.480;19.238;2023-03-14T09:55:05;5.97;;;2.35;;
74849;SDS011;63397;47.480;19.238;2023-03-14T09:58:13;4.35;;;1.58;;
74849;SDS011;63397;47.480;19.238;2023-03-14T10:01:17;4.18;;;2.05;;
74849;SDS011;63397;47.480;19.238;2023-03-14T10:04:22;3.37;;;1.67;;
74849;SDS011;63397;47.480;19.238;2023-03-14T10:07:28;3.72;;;1.75;;
74849;SDS011;63397;47.480;19.238;2023-03-14T10:10:32;4.30;;;1.63;;
74849;SDS011;63397;47.480;19.238;2023-03-14T10:13:35;4.55;;;1.85;;
74849;SDS011;63397;47.480;19.238;2023-03-14T10:16:43;2.85;;;1.38;;
74849;SDS011;63397;47.480;19.238;2023-03-14T10:19:56;4.35;;;1.83;;
74849;SDS011;63397;47.480;19.238;2023-03-14T10:23:00;3.30;;;1.70;;
74849;SDS011;63397;47.480;19.238;2023-03-14T10:26:05;3.80;;;1.33;;
74849;SDS011;63397;47.480;19.238;2023-03-14T10:29:09;8.10;;;1.67;;
74849;SDS011;63397;47.480;19.238;2023-03-14T10:32:19;7.20;;;1.70;;
74849;SDS011;63397;47.480;19.238;2023-03-14T10:35:22;4.57;;;1.60;;
74849;SDS011;63397;47.480;19.238;2023-03-14T10:38:28;6.40;;;1.60;;
74849;SDS011;63397;47.480;19.238;2023-03-14T10:41:32;4.55;;;1.67;;
74849;SDS011;63397;47.480;19.238;2023-03-14T10:44:35;5.00;;;2.03;;
74849;SDS011;63397;47.480;19.238;2023-03-14T10:47:48;4.43;;;1.90;;
74849;SDS011;63397;47.480;19.238;2023-03-14T10:51:07;5.32;;;1.95;;
74849;SDS011;63397;47.480;19.238;2023-03-14T10:54:18;5.37;;;1.63;;
74849;SDS011;63397;47.480;19.238;2023-03-14T10:57:21;5.68;;;1.95;;
74849;SDS011;63397;47.480;19.238;2023-03-14T11:00:24;4.70;;;1.90;;
74849;SDS011;63397;47.480;19.238;2023-03-14T11:03:26;5.18;;;2.00;;
74849;SDS011;63397;47.480;19.238;2023-03-14T11:09:41;4.83;;;1.93;;
74849;SDS011;63397;47.480;19.238;2023-03-14T11:31:28;4.13;;;1.50;;
74849;SDS011;63397;47.480;19.238;2023-03-14T11:34:36;5.20;;;0.93;;
74849;SDS011;63397;47.480;19.238;2023-03-14T11:37:52;2.60;;;0.75;;
74849;SDS011;63397;47.480;19.238;2023-03-14T11:40:57;6.90;;;0.80;;
74849;SDS011;63397;47.480;19.238;2023-03-14T11:44:01;1.70;;;0.70;;
74849;SDS011;63397;47.480;19.238;2023-03-14T11:50:15;3.13;;;0.80;;
74849;SDS011;63397;47.480;19.238;2023-03-14T11:56:37;5.17;;;0.83;;
74849;SDS011;63397;47.480;19.238;2023-03-14T11:59:50;2.13;;;0.80;;
74849;SDS011;63397;47.480;19.238;2023-03-14T12:06:35;2.55;;;0.82;;
74849;SDS011;63397;47.480;19.238;2023-03-14T12:09:39;4.15;;;1.00;;
74849;SDS011;63397;47.480;19.238;2023-03-14T12:12:42;2.33;;;0.80;;
74849;SDS011;63397;47.480;19.238;2023-03-14T12:15:54;2.47;;;0.80;;
74849;SDS011;63397;47.480;19.238;2023-03-14T12:18:57;2.15;;;0.80;;
74849;SDS011;63397;47.480;19.238;2023-03-14T12:28:30;3.77;;;1.10;;
74849;SDS011;63397;47.480;19.238;2023-03-14T12:31:37;3.72;;;0.80;;
74849;SDS011;63397;47.480;19.238;2023-03-14T12:34:41;3.17;;;0.75;;
74849;SDS011;63397;47.480;19.238;2023-03-14T12:37:45;2.35;;;0.68;;
74849;SDS011;63397;47.480;19.238;2023-03-14T12:41:02;2.05;;;0.75;;
74849;SDS011;63397;47.480;19.238;2023-03-14T12:50:31;2.28;;;0.80;;
74849;SDS011;63397;47.480;19.238;2023-03-14T12:59:51;1.67;;;0.90;;
74849;SDS011;63397;47.480;19.238;2023-03-14T13:02:53;3.25;;;0.90;;
74849;SDS011;63397;47.480;19.238;2023-03-14T13:06:04;3.28;;;1.00;;
74849;SDS011;63397;47.480;19.238;2023-03-14T13:12:28;4.97;;;0.90;;
74849;SDS011;63397;47.480;19.238;2023-03-14T13:15:33;2.53;;;0.90;;
74849;SDS011;63397;47.480;19.238;2023-03-14T13:18:36;1.95;;;0.90;;
74849;SDS011;63397;47.480;19.238;2023-03-14T13:21:39;2.33;;;0.98;;
74849;SDS011;63397;47.480;19.238;2023-03-14T13:24:42;2.25;;;0.80;;
74849;SDS011;63397;47.480;19.238;2023-03-14T13:27:44;3.58;;;1.00;;
74849;SDS011;63397;47.480;19.238;2023-03-14T13:30:47;2.13;;;0.80;;
74849;SDS011;63397;47.480;19.238;2023-03-14T13:33:59;4.85;;;1.15;;
74849;SDS011;63397;47.480;19.238;2023-03-14T13:37:02;2.97;;;1.10;;
74849;SDS011;63397;47.480;19.238;2023-03-14T13:40:04;2.45;;;0.82;;
74849;SDS011;63397;47.480;19.238;2023-03-14T13:46:16;3.67;;;1.10;;
74849;SDS011;63397;47.480;19.238;2023-03-14T13:49:22;1.95;;;0.77;;
74849;SDS011;63397;47.480;19.238;2023-03-14T13:55:30;2.58;;;1.08;;
74849;SDS011;63397;47.480;19.238;2023-03-14T13:58:33;3.45;;;1.33;;
74849;SDS011;63397;47.480;19.238;2023-03-14T14:01:38;5.20;;;1.60;;
74849;SDS011;63397;47.480;19.238;2023-03-14T14:04:41;4.85;;;1.40;;
74849;SDS011;63397;47.480;19.238;2023-03-14T14:07:43;2.67;;;1.45;;
74849;SDS011;63397;47.480;19.238;2023-03-14T14:10:46;4.05;;;1.50;;
74849;SDS011;63397;47.480;19.238;2023-03-14T14:13:49;4.93;;;1.50;;
74849;SDS011;63397;47.480;19.238;2023-03-14T14:16:52;4.37;;;1.67;;
74849;SDS011;63397;47.480;19.238;2023-03-14T14:19:55;3.78;;;1.40;;
74849;SDS011;63397;47.480;19.238;2023-03-14T14:22:58;7.00;;;1.77;;
74849;SDS011;63397;47.480;19.238;2023-03-14T14:26:01;5.15;;;1.50;;
74849;SDS011;63397;47.480;19.238;2023-03-14T14:29:16;4.00;;;1.67;;
74849;SDS011;63397;47.480;19.238;2023-03-14T14:32:22;3.87;;;1.73;;
74849;SDS011;63397;47.480;19.238;2023-03-14T14:35:34;4.82;;;1.45;;
74849;SDS011;63397;47.480;19.238;2023-03-14T14:38:37;10.93;;;2.47;;
74849;SDS011;63397;47.480;19.238;2023-03-14T14:41:40;3.95;;;1.70;;
74849;SDS011;63397;47.480;19.238;2023-03-14T14:44:43;4.97;;;1.90;;
74849;SDS011;63397;47.480;19.238;2023-03-14T14:47:53;6.33;;;1.80;;
74849;SDS011;63397;47.480;19.238;2023-03-14T14:50:58;5.05;;;2.08;;
74849;SDS011;63397;47.480;19.238;2023-03-14T14:54:02;3.65;;;1.40;;
74849;SDS011;63397;47.480;19.238;2023-03-14T14:57:05;4.43;;;1.45;;
74849;SDS011;63397;47.480;19.238;2023-03-14T15:00:17;4.60;;;1.80;;
74849;SDS011;63397;47.480;19.238;2023-03-14T15:03:20;3.57;;;1.50;;
74849;SDS011;63397;47.480;19.238;2023-03-14T15:06:22;6.68;;;1.52;;
74849;SDS011;63397;47.480;19.238;2023-03-14T15:09:26;6.65;;;2.00;;
74849;SDS011;63397;47.480;19.238;2023-03-14T15:12:28;4.85;;;1.88;;
74849;SDS011;63397;47.480;19.238;2023-03-14T15:15:30;5.60;;;1.60;;
74849;SDS011;63397;47.480;19.238;2023-03-14T15:18:33;4.77;;;1.80;;
74849;SDS011;63397;47.480;19.238;2023-03-14T15:21:35;7.38;;;1.92;;
74849;SDS011;63397;47.480;19.238;2023-03-14T15:24:38;4.20;;;1.63;;
74849;SDS011;63397;47.480;19.238;2023-03-14T15:27:40;4.95;;;1.83;;
74849;SDS011;63397;47.480;19.238;2023-03-14T15:30:44;7.53;;;2.05;;
74849;SDS011;63397;47.480;19.238;2023-03-14T15:33:47;6.77;;;1.90;;
74849;SDS011;63397;47.480;19.238;2023-03-14T15:36:49;4.70;;;1.95;;
74849;SDS011;63397;47.480;19.238;2023-03-14T15:39:51;6.75;;;2.40;;
74849;SDS011;63397;47.480;19.238;2023-03-14T15:42:53;8.52;;;2.65;;
74849;SDS011;63397;47.480;19.238;2023-03-14T15:45:56;7.03;;;2.38;;
74849;SDS011;63397;47.480;19.238;2023-03-14T15:48:59;7.27;;;2.00;;
74849;SDS011;63397;47.480;19.238;2023-03-14T15:52:01;6.95;;;2.38;;
74849;SDS011;63397;47.480;19.238;2023-03-14T15:55:04;6.00;;;2.65;;
74849;SDS011;63397;47.480;19.238;2023-03-14T15:58:07;6.93;;;2.20;;
74849;SDS011;63397;47.480;19.238;2023-03-14T16:01:12;4.80;;;2.30;;
74849;SDS011;63397;47.480;19.238;2023-03-14T16:04:14;5.57;;;2.50;;
74849;SDS011;63397;47.480;19.238;2023-03-14T16:07:17;5.68;;;2.30;;
74849;SDS011;63397;47.480;19.238;2023-03-14T16:10:19;7.15;;;2.60;;
74849;SDS011;63397;47.480;19.238;2023-03-14T16:13:22;7.93;;;2.15;;
74849;SDS011;63397;47.480;19.238;2023-03-14T16:16:24;8.00;;;2.90;;
74849;SDS011;63397;47.480;19.238;2023-03-14T16:19:26;3.93;;;1.27;;
74849;SDS011;63397;47.480;19.238;2023-03-14T16:22:29;3.35;;;0.90;;
74849;SDS011;63397;47.480;19.238;2023-03-14T16:25:35;4.20;;;1.00;;
74849;SDS011;63397;47.480;19.238;2023-03-14T16:28:37;2.10;;;0.73;;
74849;SDS011;63397;47.480;19.238;2023-03-14T16:31:40;4.55;;;1.20;;
74849;SDS011;63397;47.480;19.238;2023-03-14T16:34:44;5.40;;;1.10;;
74849;SDS011;63397;47.480;19.238;2023-03-14T16:37:46;3.85;;;0.70;;
74849;SDS011;63397;47.480;19.238;2023-03-14T16:44:26;2.42;;;0.65;;
74849;SDS011;63397;47.480;19.238;2023-03-14T16:47:29;3.05;;;1.00;;
74849;SDS011;63397;47.480;19.238;2023-03-14T16:50:32;4.10;;;0.87;;
74849;SDS011;63397;47.480;19.238;2023-03-14T16:53:34;3.50;;;0.95;;
74849;SDS011;63397;47.480;19.238;2023-03-14T16:56:37;2.42;;;0.75;;
74849;SDS011;63397;47.480;19.238;2023-03-14T16:59:39;3.72;;;1.00;;
74849;SDS011;63397;47.480;19.238;2023-03-14T17:02:41;7.65;;;1.38;;
74849;SDS011;63397;47.480;19.238;2023-03-14T17:05:44;3.97;;;1.03;;
74849;SDS011;63397;47.480;19.238;2023-03-14T17:08:47;2.63;;;0.82;;
74849;SDS011;63397;47.480;19.238;2023-03-14T17:11:50;2.67;;;0.88;;
74849;SDS011;63397;47.480;19.238;2023-03-14T17:14:52;3.40;;;1.15;;
74849;SDS011;63397;47.480;19.238;2023-03-14T17:17:54;2.80;;;0.90;;
74849;SDS011;63397;47.480;19.238;2023-03-14T17:20:57;3.93;;;1.13;;
74849;SDS011;63397;47.480;19.238;2023-03-14T17:24:00;3.70;;;0.90;;
74849;SDS011;63397;47.480;19.238;2023-03-14T17:27:02;2.58;;;0.82;;
74849;SDS011;63397;47.480;19.238;2023-03-14T17:30:05;2.08;;;0.73;;
74849;SDS011;63397;47.480;19.238;2023-03-14T17:33:07;2.13;;;0.68;;
74849;SDS011;63397;47.480;19.238;2023-03-14T17:36:10;4.33;;;1.13;;
74849;SDS011;63397;47.480;19.238;2023-03-14T17:39:14;2.70;;;1.00;;
74849;SDS011;63397;47.480;19.238;2023-03-14T17:42:16;3.58;;;1.15;;
74849;SDS011;63397;47.480;19.238;2023-03-14T17:45:19;3.40;;;1.13;;
74849;SDS011;63397;47.480;19.238;2023-03-14T17:48:21;2.75;;;0.60;;
74849;SDS011;63397;47.480;19.238;2023-03-14T17:51:23;1.80;;;0.40;;
74849;SDS011;63397;47.480;19.238;2023-03-14T17:54:26;1.52;;;0.68;;
74849;SDS011;63397;47.480;19.238;2023-03-14T17:57:28;2.40;;;0.80;;
74849;SDS011;63397;47.480;19.238;2023-03-14T18:00:30;2.40;;;0.60;;
74849;SDS011;63397;47.480;19.238;2023-03-14T18:03:33;1.77;;;0.70;;
74849;SDS011;63397;47.480;19.238;2023-03-14T18:06:36;2.37;;;0.83;;
74849;SDS011;63397;47.480;19.238;2023-03-14T18:09:39;1.58;;;0.50;;
74849;SDS011;63397;47.480;19.238;2023-03-14T18:12:42;1.95;;;0.63;;
74849;SDS011;63397;47.480;19.238;2023-03-14T18:15:45;3.10;;;0.60;;
74849;SDS011;63397;47.480;19.238;2023-03-14T18:18:47;4.10;;;0.73;;
74849;SDS011;63397;47.480;19.238;2023-03-14T18:21:50;1.90;;;0.60;;
74849;SDS011;63397;47.480;19.238;2023-03-14T18:24:53;2.22;;;0.68;;
74849;SDS011;63397;47.480;19.238;2023-03-14T18:27:55;2.17;;;0.75;;
74849;SDS011;63397;47.480;19.238;2023-03-14T18:31:01;3.50;;;0.60;;
74849;SDS011;63397;47.480;19.238;2023-03-14T18:34:04;3.70;;;0.90;;
74849;SDS011;63397;47.480;19.238;2023-03-14T18:37:06;1.80;;;0.50;;
74849;SDS011;63397;47.480;19.238;2023-03-14T18:40:08;1.58;;;0.68;;
74849;SDS011;63397;47.480;19.238;2023-03-14T18:43:15;4.20;;;0.60;;
74849;SDS011;63397;47.480;19.238;2023-03-14T18:46:18;1.92;;;0.55;;
74849;SDS011;63397;47.480;19.238;2023-03-14T18:49:21;2.22;;;0.55;;
74849;SDS011;63397;47.480;19.238;2023-03-14T18:52:25;1.43;;;0.50;;
74849;SDS011;63397;47.480;19.238;2023-03-14T18:55:27;2.60;;;0.70;;
74849;SDS011;63397;47.480;19.238;2023-03-14T18:58:30;1.90;;;0.68;;
74849;SDS011;63397;47.480;19.238;2023-03-14T19:01:32;1.38;;;0.50;;
74849;SDS011;63397;47.480;19.238;2023-03-14T19:04:36;3.13;;;0.68;;
74849;SDS011;63397;47.480;19.238;2023-03-14T19:07:38;1.83;;;0.50;;
74849;SDS011;63397;47.480;19.238;2023-03-14T19:10:40;2.45;;;0.55;;
74849;SDS011;63397;47.480;19.238;2023-03-14T19:13:43;1.60;;;0.55;;
74849;SDS011;63397;47.480;19.238;2023-03-14T19:16:46;2.40;;;0.73;;
74849;SDS011;63397;47.480;19.238;2023-03-14T19:19:48;2.15;;;0.60;;
74849;SDS011;63397;47.480;19.238;2023-03-14T19:22:53;1.90;;;0.70;;
74849;SDS011;63397;47.480;19.238;2023-03-14T19:25:59;2.10;;;0.70;;
74849;SDS011;63397;47.480;19.238;2023-03-14T19:29:03;2.20;;;0.77;;
74849;SDS011;63397;47.480;19.238;2023-03-14T19:32:08;1.25;;;0.50;;
74849;SDS011;63397;47.480;19.238;2023-03-14T19:35:11;2.60;;;0.60;;